Strona główna
METAR-TAF:

METAR-TAF

Lotnisko :

Büchel, Niemcy

Szerokość geograficzna: 50-10N, Długość geograficzna: 007-04E, wysokość: 478 m

Aktualna obserwacja pogody

Raport powstał 32 minut temu, godzina 09:20 UTC
Wiatr 10 kt od południowy zachód
Temperatura 11°C
Wilgotność 71%
Ciśnienie 1008 hPa
Widzialność 10 km lub więcej

METAR: ETSB 070920Z AUTO 23010KT 9999 // ////// 11/06 Q1008 ///

czas: 11:52 (09:52 UTC)


TAF: brakujący

Obserwacja i prognoza pogody dla ponad 4000 lotnisk (raport METAR i TAF).

Dostępne stacje oznaczono żółtymi i czerwonymi punktami na mapie.

Najedź kursorem aby zobaczyć nazwę stacji.

Kliknij aby zobaczyć obserwacje i prognozy pogody.

Aby zmienić mapę: kliknij na zielony przycisk z czarnym krzyżykiem, aby powiększyć; na zielony przycisk z myślnikiem, aby pomniejszyć; na zielone strzałki, aby przejść do map sąsiednich.


METAR-TAF: